Time;durP1;ratioP1;P1;durP2;ratioP2;P2;SDS_P1;SDS_P2;PMS_P1;PMS_P2;Temp;Humidity;BMP_temperature;BMP_pressure;BME280_temperature;BME280_humidity;BME280_pressure;Samples;Min_cycle;Max_cycle;Signal;HPM_P1;HPM_P2
2024/03/31 00:01:36;;;;;;;12.15;8.80;;;;;;;;;;5051686;28;20037;-82
2024/03/31 00:04:02;;;;;;;13.38;9.95;;;;;;;;;;5052088;28;20028;-82
2024/03/31 00:06:28;;;;;;;14.10;10.80;;;;;;;;;;5053583;28;20036;-82
2024/03/31 00:08:57;;;;;;;16.33;11.15;;;;;;;;;;5051392;28;20032;-81
2024/03/31 00:11:23;;;;;;;17.65;11.52;;;;;;;;;;5051562;28;20032;-81
2024/03/31 00:13:49;;;;;;;16.27;11.95;;;;;;;;;;5050996;28;20029;-80
2024/03/31 00:16:15;;;;;;;17.13;12.63;;;;;;;;;;5051448;28;20385;-81
2024/03/31 00:18:42;;;;;;;19.70;13.43;;;;;;;;;;5051271;28;20021;-81
2024/03/31 00:21:09;;;;;;;19.30;13.27;;;;;;;;;;5052974;28;20048;-83
2024/03/31 00:23:35;;;;;;;17.65;11.45;;;;;;;;;;5051626;28;20443;-84
2024/03/31 00:26:02;;;;;;;14.05;8.90;;;;;;;;;;5050917;28;20426;-84
2024/03/31 00:28:28;;;;;;;10.75;6.40;;;;;;;;;;5051283;28;20464;-83
2024/03/31 00:30:58;;;;;;;15.82;9.73;;;;;;;;;;5051031;28;20094;-83
2024/03/31 00:33:25;;;;;;;18.45;10.60;;;;;;;;;;5051078;28;20491;-84
2024/03/31 00:35:51;;;;;;;25.05;16.05;;;;;;;;;;5050745;28;20377;-82
2024/03/31 00:38:17;;;;;;;25.80;15.52;;;;;;;;;;5051003;28;20025;-81
2024/03/31 00:40:43;;;;;;;24.10;16.30;;;;;;;;;;5050654;28;20070;-82
2024/03/31 00:43:09;;;;;;;18.50;12.63;;;;;;;;;;5050927;28;20021;-81
2024/03/31 00:45:35;;;;;;;28.85;19.42;;;;;;;;;;5050900;28;20484;-81
2024/03/31 00:48:02;;;;;;;18.08;12.13;;;;;;;;;;5050602;28;20136;-81
2024/03/31 00:50:28;;;;;;;18.35;12.45;;;;;;;;;;5051225;28;20526;-82
2024/03/31 00:52:54;;;;;;;24.45;16.45;;;;;;;;;;5052074;28;20025;-82
2024/03/31 00:55:20;;;;;;;10.60;5.60;;;;;;;;;;5051047;28;20028;-82
2024/03/31 00:57:46;;;;;;;10.27;5.60;;;;;;;;;;5051197;28;20119;-82
2024/03/31 01:00:12;;;;;;;6.68;4.15;;;;;;;;;;5051168;28;20075;-83
2024/03/31 01:02:38;;;;;;;17.73;11.55;;;;;;;;;;5053979;28;20060;-80
2024/03/31 01:05:04;;;;;;;15.52;10.63;;;;;;;;;;5051703;28;20029;-81
2024/03/31 01:07:30;;;;;;;17.90;12.20;;;;;;;;;;5055215;28;20452;-80
2024/03/31 01:09:56;;;;;;;22.48;15.30;;;;;;;;;;5052226;28;20505;-82
2024/03/31 01:12:22;;;;;;;25.23;17.48;;;;;;;;;;5050643;28;20143;-82
2024/03/31 01:14:48;;;;;;;24.10;16.27;;;;;;;;;;5050888;28;20055;-83
2024/03/31 01:17:14;;;;;;;15.10;7.43;;;;;;;;;;5051391;28;20033;-82
2024/03/31 01:19:40;;;;;;;24.42;14.73;;;;;;;;;;5050452;28;20025;-81
2024/03/31 01:22:07;;;;;;;26.80;16.42;;;;;;;;;;5050996;28;20143;-82
2024/03/31 01:24:33;;;;;;;28.80;18.55;;;;;;;;;;5050724;28;20086;-81
2024/03/31 01:26:59;;;;;;;19.08;12.27;;;;;;;;;;5050737;28;20029;-83
2024/03/31 01:29:25;;;;;;;13.00;7.25;;;;;;;;;;5051126;28;20028;-82
2024/03/31 01:31:51;;;;;;;21.08;14.40;;;;;;;;;;5051544;28;20040;-83
2024/03/31 01:34:17;;;;;;;24.85;16.60;;;;;;;;;;5052139;28;20024;-83
2024/03/31 01:36:44;;;;;;;22.60;15.48;;;;;;;;;;5050943;28;20029;-81
2024/03/31 01:39:11;;;;;;;13.65;8.52;;;;;;;;;;5051682;28;20037;-83
2024/03/31 01:41:37;;;;;;;21.55;14.32;;;;;;;;;;5050916;28;20021;-83
2024/03/31 01:44:03;;;;;;;25.45;15.82;;;;;;;;;;5050173;28;20037;-82
2024/03/31 01:46:32;;;;;;;19.38;11.63;;;;;;;;;;5050266;28;20017;-82
2024/03/31 01:48:58;;;;;;;19.17;12.80;;;;;;;;;;5049981;28;20029;-82
2024/03/31 01:51:24;;;;;;;19.98;13.65;;;;;;;;;;5049947;28;20025;-83
2024/03/31 01:53:50;;;;;;;10.63;6.05;;;;;;;;;;5051344;28;20021;-82
2024/03/31 01:56:16;;;;;;;14.95;10.32;;;;;;;;;;5049988;28;20025;-81
2024/03/31 01:58:43;;;;;;;5.82;3.03;;;;;;;;;;5051310;28;20074;-82
2024/03/31 02:01:09;;;;;;;17.40;12.15;;;;;;;;;;5049948;28;20025;-82
2024/03/31 02:03:35;;;;;;;14.32;9.63;;;;;;;;;;5054304;28;20028;-82
2024/03/31 02:06:10;;;;;;;14.55;9.52;;;;;;;;;;5053463;28;20029;-82
2024/03/31 02:08:37;;;;;;;6.43;3.55;;;;;;;;;;5054734;28;20067;-84
2024/03/31 02:11:03;;;;;;;13.98;10.48;;;;;;;;;;5054747;28;20535;-84
2024/03/31 02:13:29;;;;;;;15.15;9.73;;;;;;;;;;5053471;28;20029;-84
2024/03/31 02:15:55;;;;;;;15.48;10.32;;;;;;;;;;5053086;28;20072;-83
2024/03/31 02:18:22;;;;;;;12.93;9.15;;;;;;;;;;5053355;28;20055;-83
2024/03/31 02:20:48;;;;;;;8.75;5.53;;;;;;;;;;5054483;28;20427;-84
2024/03/31 02:23:14;;;;;;;14.73;10.70;;;;;;;;;;5055230;28;20033;-83
2024/03/31 02:25:40;;;;;;;15.45;9.32;;;;;;;;;;5055000;28;20021;-84
2024/03/31 02:28:06;;;;;;;16.17;9.82;;;;;;;;;;5054611;28;20040;-83
2024/03/31 02:30:32;;;;;;;13.85;9.68;;;;;;;;;;5036529;28;20053;-83
2024/03/31 02:32:59;;;;;;;13.63;9.93;;;;;;;;;;5052628;28;20079;-83
2024/03/31 02:35:25;;;;;;;15.40;10.70;;;;;;;;;;5054154;28;20465;-83
2024/03/31 02:37:51;;;;;;;15.68;11.13;;;;;;;;;;5052610;28;20326;-83
2024/03/31 02:40:17;;;;;;;15.48;10.65;;;;;;;;;;5053138;28;20025;-82
2024/03/31 02:42:43;;;;;;;17.50;11.20;;;;;;;;;;5052724;28;20029;-81
2024/03/31 02:45:09;;;;;;;17.15;10.35;;;;;;;;;;5052608;28;20029;-82
2024/03/31 02:47:36;;;;;;;14.80;11.20;;;;;;;;;;5053905;28;20025;-82
2024/03/31 02:50:02;;;;;;;15.73;10.13;;;;;;;;;;5053097;28;20025;-84
2024/03/31 02:52:28;;;;;;;16.95;11.40;;;;;;;;;;5055343;28;20428;-81
2024/03/31 02:54:54;;;;;;;17.50;11.07;;;;;;;;;;5059633;28;20489;-81
2024/03/31 02:57:20;;;;;;;14.00;9.65;;;;;;;;;;5059211;28;20036;-82
2024/03/31 02:59:46;;;;;;;15.60;10.13;;;;;;;;;;5059313;28;20025;-84
2024/03/31 03:02:13;;;;;;;14.40;9.40;;;;;;;;;;5053597;28;20049;-83
2024/03/31 03:04:39;;;;;;;16.25;10.98;;;;;;;;;;5053506;28;20021;-84
2024/03/31 03:07:05;;;;;;;15.77;9.50;;;;;;;;;;5052838;28;20036;-84
2024/03/31 03:09:31;;;;;;;13.38;8.55;;;;;;;;;;5052664;28;20025;-83
2024/03/31 03:11:57;;;;;;;13.43;9.63;;;;;;;;;;5052387;28;20025;-84
2024/03/31 03:14:23;;;;;;;14.57;9.30;;;;;;;;;;5053318;28;20029;-84
2024/03/31 03:16:49;;;;;;;11.93;8.18;;;;;;;;;;5052115;28;20028;-83
2024/03/31 03:19:15;;;;;;;13.48;6.65;;;;;;;;;;5052560;28;20025;-85
2024/03/31 03:21:41;;;;;;;11.27;6.70;;;;;;;;;;5052436;28;20029;-85
2024/03/31 03:24:07;;;;;;;10.10;6.75;;;;;;;;;;5052051;28;20025;-83
2024/03/31 03:26:34;;;;;;;12.68;8.05;;;;;;;;;;5053251;28;20029;-83
2024/03/31 03:29:00;;;;;;;11.13;7.72;;;;;;;;;;5052876;28;20044;-81
2024/03/31 03:31:26;;;;;;;10.18;6.70;;;;;;;;;;5053131;28;20123;-82
2024/03/31 03:33:52;;;;;;;10.52;6.00;;;;;;;;;;5053103;28;20064;-81
2024/03/31 03:36:18;;;;;;;10.73;6.88;;;;;;;;;;5051967;28;20393;-81
2024/03/31 03:38:47;;;;;;;10.35;5.25;;;;;;;;;;5051881;28;20488;-81
2024/03/31 03:41:13;;;;;;;10.65;6.53;;;;;;;;;;5051746;28;20028;-81
2024/03/31 03:43:39;;;;;;;9.30;6.18;;;;;;;;;;5051548;28;20020;-81
2024/03/31 03:46:05;;;;;;;9.23;6.05;;;;;;;;;;5051583;28;20063;-82
2024/03/31 03:48:31;;;;;;;10.32;7.07;;;;;;;;;;5051551;28;20060;-83
2024/03/31 03:51:01;;;;;;;9.55;6.05;;;;;;;;;;5051414;28;20469;-82
2024/03/31 03:53:27;;;;;;;8.75;5.85;;;;;;;;;;5051648;28;20025;-82
2024/03/31 03:55:53;;;;;;;8.82;6.38;;;;;;;;;;5051155;28;20059;-82
2024/03/31 03:58:19;;;;;;;9.73;6.22;;;;;;;;;;5051287;28;20039;-81
2024/03/31 04:00:45;;;;;;;8.07;4.47;;;;;;;;;;5052567;28;20028;-81
2024/03/31 04:03:11;;;;;;;9.05;5.45;;;;;;;;;;5052443;28;20025;-81
2024/03/31 04:05:37;;;;;;;8.63;6.00;;;;;;;;;;5052517;28;20021;-82
2024/03/31 04:08:03;;;;;;;9.88;6.53;;;;;;;;;;5051051;28;20033;-82
2024/03/31 04:10:30;;;;;;;9.15;5.93;;;;;;;;;;5051146;28;20027;-82
2024/03/31 04:12:56;;;;;;;10.05;7.55;;;;;;;;;;5051217;28;20479;-82
2024/03/31 04:15:22;;;;;;;10.50;6.75;;;;;;;;;;5051083;28;20151;-82
2024/03/31 04:17:50;;;;;;;10.63;7.45;;;;;;;;;;5051254;28;20025;-82
2024/03/31 04:20:16;;;;;;;9.35;6.57;;;;;;;;;;5052172;28;20025;-82
2024/03/31 04:22:42;;;;;;;9.23;6.22;;;;;;;;;;5050963;28;20233;-85
2024/03/31 04:25:08;;;;;;;11.00;7.07;;;;;;;;;;5051171;28;20021;-83
2024/03/31 04:27:34;;;;;;;11.18;7.40;;;;;;;;;;5051278;28;20463;-83
2024/03/31 04:30:00;;;;;;;11.13;8.48;;;;;;;;;;5050795;28;20053;-81
2024/03/31 04:32:26;;;;;;;13.55;8.60;;;;;;;;;;5050870;28;20021;-82
2024/03/31 04:34:52;;;;;;;14.40;10.18;;;;;;;;;;5051013;28;20030;-82
2024/03/31 04:37:20;;;;;;;13.98;7.45;;;;;;;;;;5050887;28;20075;-82
2024/03/31 04:39:46;;;;;;;14.90;10.75;;;;;;;;;;5051069;28;20021;-82
2024/03/31 04:42:12;;;;;;;12.50;9.38;;;;;;;;;;5051319;28;20040;-81
2024/03/31 04:44:38;;;;;;;15.18;11.40;;;;;;;;;;5053278;28;20028;-82
2024/03/31 04:47:04;;;;;;;12.13;8.90;;;;;;;;;;5052248;28;20520;-81
2024/03/31 04:49:30;;;;;;;13.48;10.02;;;;;;;;;;5056092;28;20021;-81
2024/03/31 04:51:57;;;;;;;12.80;9.13;;;;;;;;;;5050672;28;20048;-85
2024/03/31 04:54:23;;;;;;;11.77;8.20;;;;;;;;;;5050694;28;20029;-83
2024/03/31 04:56:49;;;;;;;13.75;9.88;;;;;;;;;;5050439;28;20439;-81
2024/03/31 04:59:15;;;;;;;12.45;9.13;;;;;;;;;;5051615;28;20029;-82
2024/03/31 05:01:41;;;;;;;16.15;10.35;;;;;;;;;;5051848;28;20364;-81
2024/03/31 05:04:07;;;;;;;15.55;11.15;;;;;;;;;;5051770;28;20083;-82
2024/03/31 05:06:33;;;;;;;11.82;8.93;;;;;;;;;;5050514;28;20032;-81
2024/03/31 05:09:00;;;;;;;9.85;5.75;;;;;;;;;;5050497;28;20036;-82
2024/03/31 05:11:26;;;;;;;14.80;10.70;;;;;;;;;;5051793;28;20017;-83
2024/03/31 05:13:52;;;;;;;10.43;6.13;;;;;;;;;;5050928;28;20029;-83
2024/03/31 05:16:18;;;;;;;11.40;6.97;;;;;;;;;;5050549;28;20062;-82
2024/03/31 05:18:44;;;;;;;14.20;8.95;;;;;;;;;;5050816;28;20029;-83
2024/03/31 05:21:10;;;;;;;12.98;9.48;;;;;;;;;;5050244;28;20054;-82
2024/03/31 05:23:42;;;;;;;14.63;9.90;;;;;;;;;;5050908;28;20353;-83
2024/03/31 05:26:12;;;;;;;14.80;10.70;;;;;;;;;;5050597;28;20044;-82
2024/03/31 05:28:38;;;;;;;14.55;10.85;;;;;;;;;;5050852;28;20091;-82
2024/03/31 05:31:04;;;;;;;12.90;9.43;;;;;;;;;;5050370;28;20037;-82
2024/03/31 05:33:30;;;;;;;13.25;9.63;;;;;;;;;;5050292;28;20032;-82
2024/03/31 05:35:56;;;;;;;16.73;11.65;;;;;;;;;;5050836;28;20043;-82
2024/03/31 05:38:22;;;;;;;18.60;13.45;;;;;;;;;;5053962;28;20412;-81
2024/03/31 05:40:48;;;;;;;19.42;13.50;;;;;;;;;;5054309;28;20484;-82
2024/03/31 05:43:14;;;;;;;15.43;9.88;;;;;;;;;;5055291;28;20032;-81
2024/03/31 05:45:41;;;;;;;12.18;8.75;;;;;;;;;;5054087;28;20029;-83
2024/03/31 05:48:08;;;;;;;12.93;7.25;;;;;;;;;;5053937;28;20055;-83
2024/03/31 05:50:34;;;;;;;16.45;12.05;;;;;;;;;;5053845;28;20483;-81
2024/03/31 05:53:00;;;;;;;16.85;13.27;;;;;;;;;;5053699;28;20033;-81
2024/03/31 05:55:28;;;;;;;10.00;5.10;;;;;;;;;;5053592;28;20032;-82
2024/03/31 05:57:54;;;;;;;22.10;16.55;;;;;;;;;;5054859;28;20477;-81
2024/03/31 06:00:20;;;;;;;14.40;8.75;;;;;;;;;;5053306;28;20053;-81
2024/03/31 06:02:46;;;;;;;18.92;13.35;;;;;;;;;;5053681;28;20097;-83
2024/03/31 06:05:12;;;;;;;22.60;15.25;;;;;;;;;;5053635;28;20400;-82
2024/03/31 06:07:39;;;;;;;18.13;12.45;;;;;;;;;;5053646;28;20469;-82
2024/03/31 06:10:05;;;;;;;14.25;10.07;;;;;;;;;;5053258;28;20028;-81
2024/03/31 06:12:31;;;;;;;23.50;16.85;;;;;;;;;;5053432;28;20112;-83
2024/03/31 06:14:57;;;;;;;17.55;13.35;;;;;;;;;;5053235;28;20025;-81
2024/03/31 06:17:23;;;;;;;25.67;18.50;;;;;;;;;;5053261;28;20459;-82
2024/03/31 06:19:49;;;;;;;29.75;21.45;;;;;;;;;;5053237;28;20021;-81
2024/03/31 06:22:15;;;;;;;28.55;20.13;;;;;;;;;;5054594;28;20416;-81
2024/03/31 06:24:41;;;;;;;26.10;18.10;;;;;;;;;;5053060;28;20429;-80
2024/03/31 06:27:08;;;;;;;32.58;21.60;;;;;;;;;;5052943;28;20033;-79
2024/03/31 06:29:34;;;;;;;19.25;13.73;;;;;;;;;;5053447;28;20053;-79
2024/03/31 06:32:00;;;;;;;21.98;15.00;;;;;;;;;;5053569;28;20037;-79
2024/03/31 06:34:26;;;;;;;28.00;20.55;;;;;;;;;;5053367;28;20033;-79
2024/03/31 06:36:52;;;;;;;24.45;16.52;;;;;;;;;;5054123;28;20070;-80
2024/03/31 06:39:21;;;;;;;22.38;15.50;;;;;;;;;;5055028;28;20036;-81
2024/03/31 06:41:47;;;;;;;23.88;16.73;;;;;;;;;;5052480;28;20029;-81
2024/03/31 06:44:13;;;;;;;24.20;17.50;;;;;;;;;;5052674;28;20029;-80
2024/03/31 06:46:39;;;;;;;22.15;15.38;;;;;;;;;;5052705;28;20361;-80
2024/03/31 06:49:05;;;;;;;32.05;23.05;;;;;;;;;;5051676;28;20041;-79
2024/03/31 06:51:32;;;;;;;19.60;14.00;;;;;;;;;;5054317;28;20479;-80
2024/03/31 06:53:58;;;;;;;30.20;21.33;;;;;;;;;;5054194;28;20025;-80
2024/03/31 06:56:24;;;;;;;23.67;16.67;;;;;;;;;;5052345;28;20029;-80
2024/03/31 06:58:50;;;;;;;28.60;21.23;;;;;;;;;;5052515;28;20029;-80
2024/03/31 07:01:16;;;;;;;24.13;17.60;;;;;;;;;;5051941;28;20029;-80
2024/03/31 07:03:42;;;;;;;26.75;18.88;;;;;;;;;;5052513;28;20017;-80
2024/03/31 07:06:08;;;;;;;24.23;17.98;;;;;;;;;;5052264;28;20021;-80
2024/03/31 07:08:34;;;;;;;24.48;17.83;;;;;;;;;;5052201;28;20472;-80
2024/03/31 07:11:00;;;;;;;20.90;14.93;;;;;;;;;;5052151;28;20056;-80
2024/03/31 07:13:26;;;;;;;24.48;18.42;;;;;;;;;;5052118;28;20029;-81
2024/03/31 07:15:52;;;;;;;19.20;14.23;;;;;;;;;;5052316;28;20032;-80
2024/03/31 07:18:18;;;;;;;20.23;15.20;;;;;;;;;;5052050;28;20040;-81
2024/03/31 07:20:44;;;;;;;20.48;13.32;;;;;;;;;;5051885;28;20037;-82
2024/03/31 07:23:10;;;;;;;24.77;18.40;;;;;;;;;;5051730;28;20079;-82
2024/03/31 07:25:36;;;;;;;24.77;18.27;;;;;;;;;;5051788;28;20191;-81
2024/03/31 07:28:02;;;;;;;24.13;16.35;;;;;;;;;;5051794;28;20033;-81
2024/03/31 07:30:28;;;;;;;14.98;10.63;;;;;;;;;;5051340;28;20036;-81
2024/03/31 07:32:54;;;;;;;25.83;19.10;;;;;;;;;;5051989;28;20053;-81
2024/03/31 07:35:23;;;;;;;24.02;17.15;;;;;;;;;;5051627;28;20060;-80
2024/03/31 07:37:49;;;;;;;20.02;14.13;;;;;;;;;;5051540;28;20536;-78
2024/03/31 07:40:15;;;;;;;31.02;22.45;;;;;;;;;;5051242;28;20016;-78
2024/03/31 07:42:41;;;;;;;22.35;17.05;;;;;;;;;;5051453;28;20075;-78
2024/03/31 07:45:08;;;;;;;28.08;20.58;;;;;;;;;;5051212;28;20025;-78
2024/03/31 07:47:34;;;;;;;25.67;20.08;;;;;;;;;;5052607;28;20025;-79
2024/03/31 07:50:00;;;;;;;32.95;24.17;;;;;;;;;;5051413;28;20032;-77
2024/03/31 07:52:27;;;;;;;16.92;12.07;;;;;;;;;;5051057;28;20036;-78
2024/03/31 07:54:53;;;;;;;11.88;8.35;;;;;;;;;;5051285;28;20051;-78
2024/03/31 07:57:19;;;;;;;10.60;6.20;;;;;;;;;;5051147;28;20043;-78
2024/03/31 07:59:45;;;;;;;21.35;14.38;;;;;;;;;;5052509;28;20181;-78
2024/03/31 08:02:11;;;;;;;24.55;18.40;;;;;;;;;;5051108;28;20036;-78
2024/03/31 08:04:39;;;;;;;28.10;22.35;;;;;;;;;;5051352;28;20111;-79
2024/03/31 08:07:05;;;;;;;23.13;18.83;;;;;;;;;;5051293;28;20104;-79
2024/03/31 08:09:31;;;;;;;27.30;20.20;;;;;;;;;;5052358;28;20021;-78
2024/03/31 08:11:57;;;;;;;21.55;16.30;;;;;;;;;;5051202;28;20100;-79
2024/03/31 08:14:23;;;;;;;23.10;17.30;;;;;;;;;;5052410;28;20032;-78
2024/03/31 08:16:49;;;;;;;23.38;20.05;;;;;;;;;;5051250;28;20025;-79
2024/03/31 08:19:15;;;;;;;25.77;19.63;;;;;;;;;;5052030;28;20021;-79
2024/03/31 08:21:41;;;;;;;23.95;17.00;;;;;;;;;;5051362;28;20025;-78
2024/03/31 08:24:07;;;;;;;26.15;20.90;;;;;;;;;;5051703;28;20175;-78
2024/03/31 08:26:36;;;;;;;22.25;17.50;;;;;;;;;;5051412;28;20029;-77
2024/03/31 08:29:20;;;;;;;23.33;17.45;;;;;;;;;;5088339;27;1262060;-78
2024/03/31 08:31:46;;;;;;;20.98;14.88;;;;;;;;;;5091599;28;20471;-78
2024/03/31 08:34:12;;;;;;;19.63;14.30;;;;;;;;;;5091296;28;20494;-79
2024/03/31 08:36:38;;;;;;;21.40;16.50;;;;;;;;;;5091421;28;20024;-79
2024/03/31 08:39:09;;;;;;;20.73;15.35;;;;;;;;;;5091463;28;20028;-79
2024/03/31 08:41:41;;;;;;;23.15;17.85;;;;;;;;;;5109941;28;20020;-79
2024/03/31 08:44:07;;;;;;;21.20;17.45;;;;;;;;;;5109851;28;20039;-79
2024/03/31 08:46:34;;;;;;;25.10;17.48;;;;;;;;;;5091289;28;20053;-79
2024/03/31 08:49:01;;;;;;;20.98;15.93;;;;;;;;;;5109520;28;20032;-79
2024/03/31 08:51:27;;;;;;;21.60;14.95;;;;;;;;;;5091173;28;20024;-79
2024/03/31 08:53:54;;;;;;;20.88;14.95;;;;;;;;;;5091313;28;20020;-79
2024/03/31 08:56:20;;;;;;;20.55;15.63;;;;;;;;;;5091021;28;20019;-80
2024/03/31 08:58:46;;;;;;;19.77;15.32;;;;;;;;;;5091320;28;20114;-79
2024/03/31 09:01:13;;;;;;;16.95;11.00;;;;;;;;;;5109007;28;20020;-79
2024/03/31 09:03:40;;;;;;;17.05;9.45;;;;;;;;;;5091093;28;20111;-79
2024/03/31 09:06:06;;;;;;;14.95;9.13;;;;;;;;;;5109196;28;20162;-79
2024/03/31 09:08:32;;;;;;;15.57;9.60;;;;;;;;;;5108920;28;20034;-79
2024/03/31 09:10:58;;;;;;;13.98;10.30;;;;;;;;;;5090782;28;20020;-79
2024/03/31 09:13:24;;;;;;;20.55;14.70;;;;;;;;;;5090465;28;20012;-79
2024/03/31 09:15:50;;;;;;;16.35;8.35;;;;;;;;;;5090648;28;20058;-78
2024/03/31 09:18:16;;;;;;;20.58;13.35;;;;;;;;;;5108589;28;20028;-78
2024/03/31 09:20:43;;;;;;;20.13;13.10;;;;;;;;;;5108720;28;20031;-78
2024/03/31 09:23:09;;;;;;;22.77;15.85;;;;;;;;;;5090475;28;20032;-79
2024/03/31 09:25:36;;;;;;;21.85;14.13;;;;;;;;;;5090143;28;20028;-79
2024/03/31 09:28:04;;;;;;;16.33;10.85;;;;;;;;;;5090320;28;20052;-80
2024/03/31 09:30:31;;;;;;;22.70;15.55;;;;;;;;;;5090431;28;20380;-79
2024/03/31 09:32:57;;;;;;;22.40;13.38;;;;;;;;;;5090561;28;20106;-79
2024/03/31 09:35:24;;;;;;;26.58;15.57;;;;;;;;;;5090019;28;20055;-79
2024/03/31 09:37:50;;;;;;;18.05;13.52;;;;;;;;;;5090372;28;20016;-78
2024/03/31 09:40:17;;;;;;;20.15;13.85;;;;;;;;;;5077839;28;20064;-78
2024/03/31 09:42:44;;;;;;;21.33;14.73;;;;;;;;;;5076869;28;20016;-79
2024/03/31 09:45:13;;;;;;;19.58;13.90;;;;;;;;;;5076558;28;20468;-80
2024/03/31 09:47:48;;;;;;;20.17;12.52;;;;;;;;;;5076451;28;20134;-79
2024/03/31 09:50:23;;;;;;;20.65;14.05;;;;;;;;;;5094487;28;20017;-80
2024/03/31 09:52:56;;;;;;;21.83;14.93;;;;;;;;;;5094826;28;20065;-79
2024/03/31 09:55:23;;;;;;;20.13;13.60;;;;;;;;;;5094473;28;20035;-79
2024/03/31 09:57:50;;;;;;;19.08;11.85;;;;;;;;;;5094856;28;20051;-79
2024/03/31 10:00:17;;;;;;;22.30;13.20;;;;;;;;;;5076268;28;20027;-78
2024/03/31 10:02:53;;;;;;;22.00;12.63;;;;;;;;;;5076630;28;20020;-79
2024/03/31 10:05:32;;;;;;;17.88;12.80;;;;;;;;;;5094474;28;20081;-79
2024/03/31 10:08:00;;;;;;;19.67;13.52;;;;;;;;;;5094400;28;20134;-79
2024/03/31 10:10:27;;;;;;;17.02;11.88;;;;;;;;;;5094518;28;20045;-79
2024/03/31 10:12:53;;;;;;;17.75;10.38;;;;;;;;;;5094662;28;20024;-79
2024/03/31 10:15:20;;;;;;;18.27;12.55;;;;;;;;;;5076758;28;20031;-78
2024/03/31 10:17:48;;;;;;;19.02;9.82;;;;;;;;;;5076435;28;20031;-79
2024/03/31 10:20:15;;;;;;;12.00;7.88;;;;;;;;;;5077276;28;20031;-79
2024/03/31 10:22:43;;;;;;;11.65;6.28;;;;;;;;;;5076020;28;20024;-78
2024/03/31 10:25:12;;;;;;;16.63;6.80;;;;;;;;;;5075859;28;20559;-79
2024/03/31 10:27:44;;;;;;;14.37;8.07;;;;;;;;;;5075351;28;20471;-79
2024/03/31 10:30:11;;;;;;;11.43;5.70;;;;;;;;;;5059178;28;20032;-79
2024/03/31 10:32:38;;;;;;;10.95;6.43;;;;;;;;;;5075390;28;20498;-80
2024/03/31 10:35:05;;;;;;;17.90;11.48;;;;;;;;;;5075540;28;20028;-80
2024/03/31 10:37:32;;;;;;;18.30;9.73;;;;;;;;;;5093671;28;20024;-80
2024/03/31 10:39:59;;;;;;;11.80;6.85;;;;;;;;;;5093848;28;20028;-80
2024/03/31 10:42:25;;;;;;;13.65;6.38;;;;;;;;;;5075457;28;20033;-81
2024/03/31 10:44:55;;;;;;;13.77;7.97;;;;;;;;;;5093891;28;20024;-80
2024/03/31 10:47:22;;;;;;;14.50;5.25;;;;;;;;;;5093393;28;20035;-79
2024/03/31 10:49:56;;;;;;;12.95;6.72;;;;;;;;;;5075416;28;20083;-80
2024/03/31 10:52:24;;;;;;;12.82;6.20;;;;;;;;;;5074601;28;20032;-80
2024/03/31 10:54:52;;;;;;;12.95;6.30;;;;;;;;;;5074971;28;20031;-80
2024/03/31 10:57:19;;;;;;;20.35;10.82;;;;;;;;;;5075268;28;20040;-78
2024/03/31 10:59:45;;;;;;;16.98;8.27;;;;;;;;;;5075421;28;20024;-78
2024/03/31 11:02:12;;;;;;;14.68;7.97;;;;;;;;;;5093420;28;20536;-79
2024/03/31 11:04:38;;;;;;;13.75;7.68;;;;;;;;;;5075179;28;20024;-78
2024/03/31 11:07:05;;;;;;;16.25;8.43;;;;;;;;;;5093859;28;20044;-79
2024/03/31 11:09:31;;;;;;;16.35;8.93;;;;;;;;;;5074819;28;20024;-78
2024/03/31 11:11:58;;;;;;;13.60;7.75;;;;;;;;;;5075358;28;20447;-79
2024/03/31 11:14:25;;;;;;;21.83;8.95;;;;;;;;;;5074760;28;20024;-79
2024/03/31 11:16:51;;;;;;;12.50;6.43;;;;;;;;;;5093068;28;20107;-79
2024/03/31 11:19:20;;;;;;;20.73;8.18;;;;;;;;;;5074993;28;20085;-79
2024/03/31 11:21:46;;;;;;;11.57;6.10;;;;;;;;;;5093370;28;20569;-79
2024/03/31 11:24:13;;;;;;;16.40;7.43;;;;;;;;;;5058292;28;20028;-79
2024/03/31 11:26:40;;;;;;;17.33;7.43;;;;;;;;;;5092773;28;20035;-80
2024/03/31 11:29:07;;;;;;;21.92;8.38;;;;;;;;;;5074508;28;20689;-79
2024/03/31 11:31:34;;;;;;;17.23;7.75;;;;;;;;;;5092639;28;20058;-79
2024/03/31 11:34:01;;;;;;;16.17;7.13;;;;;;;;;;5092831;28;20464;-80
2024/03/31 11:36:27;;;;;;;16.55;5.68;;;;;;;;;;5092821;28;20020;-79
2024/03/31 11:38:53;;;;;;;22.30;5.70;;;;;;;;;;5074523;28;20463;-79
2024/03/31 11:41:19;;;;;;;20.05;6.45;;;;;;;;;;5092812;28;20028;-79
2024/03/31 11:43:45;;;;;;;12.32;4.47;;;;;;;;;;5074425;28;20024;-80
2024/03/31 11:46:12;;;;;;;14.77;4.57;;;;;;;;;;5074375;28;20024;-80
2024/03/31 11:48:38;;;;;;;15.45;5.47;;;;;;;;;;5092234;28;20099;-80
2024/03/31 11:51:04;;;;;;;14.02;5.20;;;;;;;;;;5074672;28;20031;-80
2024/03/31 11:53:30;;;;;;;13.57;4.45;;;;;;;;;;5074316;28;20020;-79
2024/03/31 11:55:56;;;;;;;12.90;4.18;;;;;;;;;;5074491;28;20032;-80
2024/03/31 11:58:22;;;;;;;14.13;4.30;;;;;;;;;;5074360;28;20484;-80
2024/03/31 12:00:49;;;;;;;13.80;4.57;;;;;;;;;;5074375;28;20115;-79
2024/03/31 12:03:15;;;;;;;10.27;4.97;;;;;;;;;;5074167;28;20031;-80
2024/03/31 12:05:45;;;;;;;16.17;5.07;;;;;;;;;;5093044;28;20019;-79
2024/03/31 12:08:11;;;;;;;17.85;5.18;;;;;;;;;;5092469;28;20028;-81
2024/03/31 12:10:37;;;;;;;10.60;3.83;;;;;;;;;;5074367;28;20435;-80
2024/03/31 12:13:04;;;;;;;11.98;3.58;;;;;;;;;;5074591;28;20024;-80
2024/03/31 12:15:30;;;;;;;9.55;2.80;;;;;;;;;;5092274;28;20020;-80
2024/03/31 12:18:00;;;;;;;12.45;3.50;;;;;;;;;;5074276;28;20077;-81
2024/03/31 12:20:26;;;;;;;11.95;3.10;;;;;;;;;;5092168;28;20036;-80
2024/03/31 12:22:53;;;;;;;11.88;3.45;;;;;;;;;;5092307;28;20050;-80
2024/03/31 12:25:19;;;;;;;18.58;3.53;;;;;;;;;;5092159;28;20024;-80
2024/03/31 12:27:46;;;;;;;11.63;3.33;;;;;;;;;;5091624;28;20047;-80
2024/03/31 12:30:13;;;;;;;13.60;3.33;;;;;;;;;;5073891;28;20507;-80
2024/03/31 12:32:39;;;;;;;12.40;3.38;;;;;;;;;;5073764;28;20132;-79
2024/03/31 12:35:05;;;;;;;12.15;3.63;;;;;;;;;;5073902;28;20080;-80
2024/03/31 12:37:32;;;;;;;11.85;3.00;;;;;;;;;;5091664;28;20039;-79
2024/03/31 12:39:59;;;;;;;8.68;3.00;;;;;;;;;;5074083;28;20058;-79
2024/03/31 12:42:30;;;;;;;12.82;3.70;;;;;;;;;;5073576;28;20085;-80
2024/03/31 12:44:57;;;;;;;11.25;3.13;;;;;;;;;;5074008;28;20024;-83
2024/03/31 12:47:24;;;;;;;18.92;3.42;;;;;;;;;;5073657;28;20114;-80
2024/03/31 12:49:50;;;;;;;14.13;3.70;;;;;;;;;;5073734;28;20024;-80
2024/03/31 12:52:19;;;;;;;11.60;3.42;;;;;;;;;;5091807;28;20405;-81
2024/03/31 12:54:45;;;;;;;8.90;3.22;;;;;;;;;;5091931;28;20028;-80
2024/03/31 12:57:11;;;;;;;11.93;2.78;;;;;;;;;;5073658;28;20024;-80
2024/03/31 12:59:39;;;;;;;9.93;2.90;;;;;;;;;;5073378;28;20054;-80
2024/03/31 13:02:06;;;;;;;9.20;2.85;;;;;;;;;;5073564;28;20035;-80
2024/03/31 13:04:32;;;;;;;18.27;3.53;;;;;;;;;;5091363;28;20345;-80
2024/03/31 13:06:58;;;;;;;9.77;2.60;;;;;;;;;;5091774;28;20032;-80
2024/03/31 13:09:24;;;;;;;12.45;2.88;;;;;;;;;;5073652;28;20422;-80
2024/03/31 13:11:51;;;;;;;10.57;2.90;;;;;;;;;;5073511;28;20043;-81
2024/03/31 13:14:18;;;;;;;8.57;2.40;;;;;;;;;;5092625;28;20399;-79
2024/03/31 13:16:44;;;;;;;16.15;2.95;;;;;;;;;;5077115;28;20035;-79
2024/03/31 13:19:10;;;;;;;13.80;3.03;;;;;;;;;;5077516;28;20035;-79
2024/03/31 13:21:36;;;;;;;14.00;3.10;;;;;;;;;;5076918;28;20081;-80
2024/03/31 13:24:03;;;;;;;17.33;3.90;;;;;;;;;;5077113;28;20104;-80
2024/03/31 13:26:29;;;;;;;10.10;3.20;;;;;;;;;;5095025;28;20069;-81
2024/03/31 13:28:55;;;;;;;14.68;4.20;;;;;;;;;;5076817;28;20040;-80
2024/03/31 13:31:21;;;;;;;16.00;3.15;;;;;;;;;;5077197;28;20035;-80
2024/03/31 13:33:47;;;;;;;11.35;2.92;;;;;;;;;;5095201;28;20355;-81
2024/03/31 13:36:13;;;;;;;8.48;2.25;;;;;;;;;;5077031;28;20020;-81
2024/03/31 13:38:39;;;;;;;11.32;2.85;;;;;;;;;;5076918;28;20039;-80
2024/03/31 13:41:05;;;;;;;13.27;2.78;;;;;;;;;;5095294;28;20024;-80
2024/03/31 13:43:34;;;;;;;9.68;1.98;;;;;;;;;;5077094;28;20070;-80
2024/03/31 13:46:00;;;;;;;7.60;2.25;;;;;;;;;;5076857;28;20056;-82
2024/03/31 13:48:27;;;;;;;13.27;2.70;;;;;;;;;;5076539;28;20036;-81
2024/03/31 13:50:53;;;;;;;11.05;2.92;;;;;;;;;;5076319;28;20028;-79
2024/03/31 13:53:19;;;;;;;10.63;2.20;;;;;;;;;;5076938;28;20016;-81
2024/03/31 13:55:45;;;;;;;8.98;2.70;;;;;;;;;;5076440;28;20028;-81
2024/03/31 13:58:11;;;;;;;8.88;2.88;;;;;;;;;;5077039;28;20047;-81
2024/03/31 14:00:37;;;;;;;17.10;3.13;;;;;;;;;;5076793;28;20103;-81
2024/03/31 14:03:04;;;;;;;9.52;1.98;;;;;;;;;;5077677;28;20165;-82
2024/03/31 14:05:30;;;;;;;10.70;2.53;;;;;;;;;;5094916;28;20024;-81
2024/03/31 14:07:57;;;;;;;9.55;2.40;;;;;;;;;;5076434;28;20471;-81
2024/03/31 14:10:26;;;;;;;11.60;2.17;;;;;;;;;;5094785;28;20114;-81
2024/03/31 14:12:52;;;;;;;9.30;2.30;;;;;;;;;;5075996;28;20020;-81
2024/03/31 14:15:18;;;;;;;8.02;2.00;;;;;;;;;;5076429;28;20024;-81
2024/03/31 14:17:44;;;;;;;7.57;2.40;;;;;;;;;;5094232;28;20031;-80
2024/03/31 14:20:10;;;;;;;8.55;2.50;;;;;;;;;;5076421;28;20502;-80
2024/03/31 14:22:36;;;;;;;8.82;2.70;;;;;;;;;;5076063;28;20073;-81